createdAt,value
2018-07-10T00:00:23.566Z,98.30
2018-07-10T00:03:17.643Z,98.40
2018-07-10T00:08:11.050Z,98.60
2018-07-10T00:11:50.840Z,99.20
2018-07-10T00:14:24.997Z,99.90
2018-07-10T00:16:59.202Z,99.90
2018-07-10T00:19:34.446Z,99.90
2018-07-10T00:22:08.615Z,99.90
2018-07-10T00:24:42.931Z,99.90
2018-07-10T00:27:17.208Z,99.90
2018-07-10T00:29:51.478Z,99.90
2018-07-10T00:32:25.745Z,99.90
2018-07-10T00:35:00.028Z,99.90
2018-07-10T00:37:34.377Z,99.90
2018-07-10T00:40:08.648Z,99.90
2018-07-10T00:42:43.904Z,99.90
2018-07-10T00:45:18.155Z,99.90
2018-07-10T00:47:52.438Z,99.90
2018-07-10T00:50:26.717Z,99.90
2018-07-10T00:53:01.081Z,99.90
2018-07-10T00:55:35.357Z,99.90
2018-07-10T00:58:09.673Z,99.90
2018-07-10T01:00:46.190Z,99.90
2018-07-10T01:03:22.324Z,99.90
2018-07-10T01:05:56.550Z,99.90
2018-07-10T01:08:30.840Z,99.90
2018-07-10T01:11:11.060Z,99.90
2018-07-10T01:16:24.510Z,99.90
2018-07-10T01:19:00.154Z,99.90
2018-07-10T01:21:34.505Z,99.90
2018-07-10T01:24:08.762Z,99.90
2018-07-10T01:26:43.073Z,99.90
2018-07-10T01:29:22.668Z,99.90
2018-07-10T01:31:56.942Z,99.90
2018-07-10T01:34:31.252Z,99.90
2018-07-10T01:37:06.959Z,99.90
2018-07-10T01:39:42.572Z,99.90
2018-07-10T01:42:16.859Z,99.90
2018-07-10T01:44:51.129Z,99.90
2018-07-10T01:47:26.453Z,99.90
2018-07-10T01:50:00.776Z,99.90
2018-07-10T01:52:35.082Z,99.90
2018-07-10T01:55:10.421Z,99.90
2018-07-10T01:57:44.657Z,99.90
2018-07-10T02:00:29.576Z,99.90
2018-07-10T02:03:03.796Z,99.90
2018-07-10T02:08:12.982Z,99.90
2018-07-10T02:10:47.299Z,99.90
2018-07-10T02:13:21.596Z,99.90
2018-07-10T02:15:56.906Z,99.90
2018-07-10T02:18:31.322Z,99.90
2018-07-10T02:21:07.928Z,99.90
2018-07-10T02:23:44.640Z,99.90
2018-07-10T02:26:22.664Z,99.90
2018-07-10T02:28:58.404Z,99.90
2018-07-10T02:31:33.010Z,99.90
2018-07-10T02:34:08.651Z,99.90
2018-07-10T02:36:43.952Z,99.90
2018-07-10T02:39:19.190Z,99.90
2018-07-10T02:41:54.130Z,99.90
2018-07-10T02:44:28.416Z,99.90
2018-07-10T02:49:36.462Z,99.90
2018-07-10T02:52:11.152Z,99.90
2018-07-10T02:54:45.634Z,99.90
2018-07-10T02:57:21.014Z,99.90
2018-07-10T02:59:55.320Z,99.90
2018-07-10T03:02:30.540Z,99.90
2018-07-10T03:05:17.031Z,99.90
2018-07-10T03:07:51.406Z,99.90
2018-07-10T03:13:00.133Z,99.90
2018-07-10T03:18:09.221Z,99.90
2018-07-10T03:20:43.643Z,99.90
2018-07-10T03:23:17.923Z,99.90
2018-07-10T03:25:53.219Z,99.90
2018-07-10T03:28:27.500Z,99.90
2018-07-10T03:31:02.785Z,99.90
2018-07-10T03:33:37.061Z,99.90
2018-07-10T03:36:11.331Z,99.90
2018-07-10T03:38:45.617Z,99.90
2018-07-10T03:41:20.008Z,99.90
2018-07-10T03:43:54.659Z,99.90
2018-07-10T03:46:30.668Z,99.90
2018-07-10T03:49:06.006Z,99.90
2018-07-10T03:51:40.247Z,99.90
2018-07-10T03:54:14.556Z,99.90
2018-07-10T03:56:48.852Z,99.90
2018-07-10T03:59:25.340Z,99.90
2018-07-10T04:01:59.661Z,99.90
2018-07-10T04:04:34.947Z,99.90
2018-07-10T04:07:09.228Z,99.90
2018-07-10T04:09:43.540Z,99.90
2018-07-10T04:12:18.860Z,99.90
2018-07-10T04:14:53.441Z,99.90
2018-07-10T04:17:32.940Z,99.90
2018-07-10T04:20:07.815Z,99.90
2018-07-10T04:25:17.535Z,99.90
2018-07-10T04:28:58.098Z,99.90
2018-07-10T04:31:39.913Z,99.90
2018-07-10T04:34:15.176Z,99.90
2018-07-10T04:36:49.849Z,99.90
2018-07-10T04:39:25.199Z,99.90
2018-07-10T04:42:06.367Z,99.90
2018-07-10T04:44:41.847Z,99.90
2018-07-10T04:47:25.036Z,99.90
2018-07-10T04:50:13.727Z,99.90
2018-07-10T04:53:26.315Z,99.90
2018-07-10T04:56:00.887Z,99.90
2018-07-10T04:58:35.232Z,99.90
2018-07-10T05:01:09.519Z,99.90
2018-07-10T05:03:50.086Z,99.90
2018-07-10T05:06:25.484Z,99.90
2018-07-10T05:09:00.255Z,99.90
2018-07-10T05:11:39.949Z,99.90
2018-07-10T05:14:14.256Z,99.90
2018-07-10T05:16:48.572Z,99.90
2018-07-10T05:19:23.920Z,99.90
2018-07-10T05:21:59.316Z,99.90
2018-07-10T05:24:33.734Z,99.90
2018-07-10T05:27:08.002Z,99.90
2018-07-10T05:29:43.425Z,99.90
2018-07-10T05:35:10.600Z,99.60
2018-07-10T05:37:55.617Z,99.90
2018-07-10T05:40:30.583Z,99.90
2018-07-10T05:45:54.546Z,98.60
2018-07-10T05:48:30.298Z,95.30
2018-07-10T05:51:05.393Z,86.40
2018-07-10T05:53:41.325Z,80.00
2018-07-10T05:58:51.504Z,61.40
2018-07-10T06:01:27.588Z,59.80
2018-07-10T06:04:02.901Z,59.70
2018-07-10T06:06:37.813Z,63.30
2018-07-10T06:11:48.448Z,70.10
2018-07-10T06:14:23.432Z,71.20
2018-07-10T06:16:58.288Z,69.70
2018-07-10T06:19:33.562Z,67.70
2018-07-10T06:22:08.897Z,65.00
2018-07-10T06:24:43.947Z,65.70
2018-07-10T06:27:23.161Z,63.20
2018-07-10T06:30:01.664Z,60.30
2018-07-10T06:32:52.860Z,59.20
2018-07-10T06:35:35.590Z,58.80
2018-07-10T06:38:15.414Z,58.90
2018-07-10T06:40:51.397Z,57.20
2018-07-10T06:43:59.748Z,54.00
2018-07-10T06:46:44.601Z,50.50
2018-07-10T06:49:27.687Z,47.30
2018-07-10T06:52:12.148Z,46.60
2018-07-10T06:54:55.519Z,46.00
2018-07-10T07:00:10.741Z,53.80
2018-07-10T07:02:45.643Z,55.50
2018-07-10T07:07:56.077Z,55.40
2018-07-10T07:10:31.094Z,55.00
2018-07-10T07:13:05.908Z,56.40
2018-07-10T07:15:40.774Z,57.20
2018-07-10T07:18:16.637Z,55.50
2018-07-10T07:20:51.493Z,51.40
2018-07-10T07:23:26.392Z,49.50
2018-07-10T07:26:01.353Z,49.90
2018-07-10T07:28:37.225Z,47.50
2018-07-10T07:31:18.484Z,43.20
2018-07-10T07:33:53.392Z,42.50
2018-07-10T07:36:28.231Z,42.10
2018-07-10T07:39:04.152Z,41.20
2018-07-10T07:41:39.040Z,41.00
2018-07-10T07:44:14.483Z,43.50
2018-07-10T07:46:50.373Z,46.50
2018-07-10T07:49:25.262Z,48.80
2018-07-10T07:52:00.497Z,49.30
2018-07-10T07:54:35.396Z,49.20
2018-07-10T07:57:10.219Z,49.20
2018-07-10T07:59:45.120Z,48.30
2018-07-10T08:02:20.659Z,47.70
2018-07-10T08:04:55.591Z,47.60
2018-07-10T08:07:32.426Z,45.40
2018-07-10T08:12:42.633Z,42.60
2018-07-10T08:15:17.523Z,40.90
2018-07-10T08:17:53.428Z,42.70
2018-07-10T08:20:28.319Z,45.90
2018-07-10T08:23:03.173Z,46.20
2018-07-10T08:25:38.041Z,44.90
2018-07-10T08:28:12.935Z,46.30
2018-07-10T08:30:49.268Z,46.60
2018-07-10T08:33:24.374Z,47.40
2018-07-10T08:36:00.366Z,47.60
2018-07-10T08:38:41.377Z,47.80
2018-07-10T08:41:23.048Z,49.20
2018-07-10T08:43:57.922Z,49.70
2018-07-10T08:46:33.723Z,51.40
2018-07-10T08:49:08.651Z,51.20
2018-07-10T08:51:44.866Z,50.80
2018-07-10T08:54:22.093Z,51.00
2018-07-10T08:56:56.952Z,52.10
2018-07-10T08:59:32.669Z,51.80
2018-07-10T09:02:08.550Z,51.00
2018-07-10T09:04:43.916Z,49.30
2018-07-10T09:07:18.796Z,47.10
2018-07-10T09:09:53.632Z,47.60
2018-07-10T09:12:28.472Z,45.40
2018-07-10T09:15:03.291Z,42.90
2018-07-10T09:17:38.136Z,43.90
2018-07-10T09:20:16.796Z,43.80
2018-07-10T09:22:51.703Z,44.50
2018-07-10T09:25:26.577Z,44.40
2018-07-10T09:28:03.812Z,45.70
2018-07-10T09:30:41.812Z,46.70
2018-07-10T09:33:17.677Z,45.70
2018-07-10T09:35:52.524Z,46.90
2018-07-10T09:41:03.092Z,45.60
2018-07-10T09:43:38.572Z,44.70
2018-07-10T09:46:13.439Z,43.90
2018-07-10T09:48:48.332Z,45.00
2018-07-10T09:51:23.173Z,43.60
2018-07-10T09:53:58.020Z,43.80
2018-07-10T09:56:33.840Z,43.40
2018-07-10T09:59:08.599Z,43.60
2018-07-10T10:01:44.493Z,44.10
2018-07-10T10:06:53.636Z,41.40
2018-07-10T10:12:03.198Z,42.50
2018-07-10T10:14:39.077Z,43.50
2018-07-10T10:17:14.371Z,42.90
2018-07-10T10:19:49.327Z,42.60
2018-07-10T10:27:33.382Z,42.60
2018-07-10T10:30:08.214Z,40.50
2018-07-10T10:32:52.330Z,40.20
2018-07-10T10:38:03.492Z,38.30
2018-07-10T10:40:40.578Z,37.30
2018-07-10T10:43:15.447Z,38.50
2018-07-10T10:45:51.320Z,41.30
2018-07-10T10:51:01.191Z,41.60
2018-07-10T10:53:36.212Z,40.90
2018-07-10T10:56:11.040Z,41.40
2018-07-10T11:01:20.412Z,40.90
2018-07-10T11:03:55.335Z,41.70
2018-07-10T11:06:31.308Z,40.90
2018-07-10T11:09:06.553Z,41.70
2018-07-10T11:11:41.472Z,42.60
2018-07-10T11:14:16.532Z,41.60
2018-07-10T11:16:51.556Z,41.30
2018-07-10T11:19:34.753Z,41.70
2018-07-10T11:22:12.324Z,42.40
2018-07-10T11:28:00.905Z,42.40
2018-07-10T11:30:36.182Z,41.20
2018-07-10T11:33:12.880Z,42.10
2018-07-10T11:35:47.705Z,42.80
2018-07-10T11:38:22.588Z,43.30
2018-07-10T11:40:57.480Z,44.10
2018-07-10T11:43:32.409Z,44.20
2018-07-10T11:46:07.303Z,45.10
2018-07-10T11:48:42.195Z,44.10
2018-07-10T11:51:17.173Z,44.70
2018-07-10T11:53:52.463Z,42.90
2018-07-10T11:56:27.329Z,42.70
2018-07-10T11:59:02.689Z,45.00
2018-07-10T12:01:37.549Z,45.60
2018-07-10T12:06:50.808Z,45.00
2018-07-10T12:09:25.670Z,43.10
2018-07-10T12:12:02.012Z,43.60
2018-07-10T12:14:37.875Z,43.00
2018-07-10T12:17:13.737Z,43.70
2018-07-10T12:19:48.612Z,42.10
2018-07-10T12:22:23.475Z,41.80
2018-07-10T12:24:59.393Z,42.10
2018-07-10T12:27:35.335Z,42.80
2018-07-10T12:30:10.224Z,41.80
2018-07-10T12:32:45.019Z,43.60
2018-07-10T12:40:29.564Z,41.60
2018-07-10T12:43:04.429Z,42.90
2018-07-10T12:45:39.253Z,40.90
2018-07-10T12:48:14.114Z,41.40
2018-07-10T12:50:48.994Z,41.60
2018-07-10T12:53:24.360Z,41.70
2018-07-10T12:58:38.441Z,42.90
2018-07-10T13:01:13.292Z,43.30
2018-07-10T13:03:49.009Z,44.20
2018-07-10T13:06:24.928Z,45.20
2018-07-10T13:08:59.729Z,43.80
2018-07-10T13:11:35.640Z,44.30
2018-07-10T13:14:10.416Z,44.70
2018-07-10T13:16:45.310Z,44.30
2018-07-10T13:19:21.073Z,45.60
2018-07-10T13:21:56.907Z,46.60
2018-07-10T13:24:31.762Z,47.60
2018-07-10T13:27:06.708Z,47.70
2018-07-10T13:29:41.728Z,48.90
2018-07-10T13:32:17.640Z,49.40
2018-07-10T13:37:28.587Z,49.30
2018-07-10T13:40:03.977Z,49.90
2018-07-10T13:42:50.823Z,50.10
2018-07-10T13:45:27.877Z,51.10
2018-07-10T13:48:02.619Z,51.70
2018-07-10T13:50:37.432Z,52.10
2018-07-10T13:53:12.288Z,52.70
2018-07-10T13:55:47.193Z,53.20
2018-07-10T13:58:25.308Z,53.30
2018-07-10T14:01:04.052Z,53.50
2018-07-10T14:03:40.123Z,53.80
2018-07-10T14:06:14.980Z,54.20
2018-07-10T14:08:49.867Z,52.90
2018-07-10T14:11:24.761Z,51.30
2018-07-10T14:13:59.623Z,52.00
2018-07-10T14:16:34.568Z,52.00
2018-07-10T14:19:12.061Z,52.40
2018-07-10T14:21:47.005Z,53.40
2018-07-10T14:24:21.846Z,54.40
2018-07-10T14:26:57.728Z,55.90
2018-07-10T14:29:32.548Z,56.10
2018-07-10T14:32:07.685Z,56.60
2018-07-10T14:34:42.610Z,57.00
2018-07-10T14:37:19.028Z,58.00
2018-07-10T14:39:56.386Z,58.10
2018-07-10T14:42:31.564Z,57.70
2018-07-10T14:45:07.031Z,57.50
2018-07-10T14:50:16.417Z,57.80
2018-07-10T14:52:52.350Z,57.80
2018-07-10T14:55:27.293Z,57.70
2018-07-10T14:58:02.220Z,58.50
2018-07-10T15:00:38.415Z,59.80
2018-07-10T15:03:13.268Z,59.00
2018-07-10T15:05:49.197Z,59.40
2018-07-10T15:08:24.063Z,59.20
2018-07-10T15:10:58.919Z,59.40
2018-07-10T15:13:43.388Z,60.10
2018-07-10T15:16:19.197Z,59.00
2018-07-10T15:18:55.308Z,59.30
2018-07-10T15:21:30.208Z,59.80
2018-07-10T15:24:07.163Z,60.50
2018-07-10T15:29:22.616Z,62.50
2018-07-10T15:31:59.382Z,62.70
2018-07-10T15:34:34.187Z,63.40
2018-07-10T15:37:09.060Z,63.70
2018-07-10T15:39:44.891Z,63.80
2018-07-10T15:42:19.751Z,63.80
2018-07-10T15:44:54.669Z,63.80
2018-07-10T15:47:29.546Z,63.70
2018-07-10T15:50:04.391Z,64.30
2018-07-10T15:52:40.235Z,63.40
2018-07-10T15:55:15.201Z,63.30
2018-07-10T15:57:51.183Z,63.00
2018-07-10T16:00:27.132Z,62.10
2018-07-10T16:03:02.440Z,62.30
2018-07-10T16:05:37.277Z,64.50
2018-07-10T16:08:14.232Z,64.20
2018-07-10T16:10:59.108Z,65.40
2018-07-10T16:13:37.640Z,65.90
2018-07-10T16:16:15.597Z,66.30
2018-07-10T16:18:56.834Z,67.10
2018-07-10T16:24:08.632Z,69.70
2018-07-10T16:26:43.505Z,70.80
2018-07-10T16:29:20.157Z,71.80
2018-07-10T16:31:58.200Z,72.50
2018-07-10T16:34:33.072Z,73.10
2018-07-10T16:37:08.183Z,73.90
2018-07-10T16:39:43.365Z,74.30
2018-07-10T16:42:23.538Z,75.50
2018-07-10T16:44:58.779Z,76.60
2018-07-10T16:47:46.106Z,78.40
2018-07-10T16:50:21.330Z,80.10
2018-07-10T16:53:00.173Z,82.60
2018-07-10T16:55:36.075Z,84.10
2018-07-10T16:58:10.905Z,84.40
2018-07-10T17:00:45.826Z,85.40
2018-07-10T17:03:20.709Z,87.60
2018-07-10T17:05:55.564Z,89.60
2018-07-10T17:08:31.360Z,90.80
2018-07-10T17:11:06.232Z,91.90
2018-07-10T17:13:41.092Z,93.00
2018-07-10T17:16:21.583Z,94.20
2018-07-10T17:21:32.041Z,97.30
2018-07-10T17:24:06.895Z,99.40
2018-07-10T17:26:41.804Z,99.90
2018-07-10T17:29:16.816Z,99.90
2018-07-10T17:31:52.738Z,99.90
2018-07-10T17:34:27.562Z,99.90
2018-07-10T17:37:02.431Z,99.90
2018-07-10T17:39:37.253Z,99.90
2018-07-10T17:42:13.124Z,99.90
2018-07-10T17:44:48.142Z,99.90
2018-07-10T17:47:22.981Z,99.90
2018-07-10T17:49:57.859Z,99.90
2018-07-10T17:52:33.124Z,99.90
2018-07-10T17:55:07.917Z,99.90
2018-07-10T17:57:43.272Z,99.90
2018-07-10T18:00:18.171Z,99.90
2018-07-10T18:02:52.984Z,99.90
2018-07-10T18:05:27.931Z,99.90
2018-07-10T18:11:00.700Z,99.90
2018-07-10T18:13:43.644Z,99.90
2018-07-10T18:16:18.690Z,99.90
2018-07-10T18:18:53.803Z,99.90
2018-07-10T18:21:28.817Z,99.90
2018-07-10T18:26:38.317Z,99.90
2018-07-10T18:29:13.276Z,99.90
2018-07-10T18:31:48.257Z,99.90
2018-07-10T18:37:06.157Z,99.90
2018-07-10T18:39:41.376Z,99.90
2018-07-10T18:42:29.268Z,99.90
2018-07-10T18:45:04.386Z,99.90
2018-07-10T18:47:41.655Z,99.90
2018-07-10T18:50:16.460Z,99.90
2018-07-10T18:52:51.761Z,99.90
2018-07-10T18:55:27.372Z,99.90
2018-07-10T18:58:15.441Z,99.90
2018-07-10T19:00:58.660Z,99.90
2018-07-10T19:03:35.598Z,99.90
2018-07-10T19:06:19.393Z,99.90
2018-07-10T19:09:04.037Z,99.90
2018-07-10T19:11:41.566Z,99.90
2018-07-10T19:14:18.751Z,99.90
2018-07-10T19:17:03.790Z,99.90
2018-07-10T19:19:51.984Z,99.90
2018-07-10T19:23:09.149Z,99.90
2018-07-10T19:25:45.340Z,99.90
2018-07-10T19:28:25.647Z,99.90
2018-07-10T19:31:06.783Z,99.90
2018-07-10T19:33:51.721Z,99.90
2018-07-10T19:39:05.205Z,99.90
2018-07-10T19:41:40.077Z,99.90
2018-07-10T19:44:14.908Z,99.90
2018-07-10T19:46:49.783Z,99.90
2018-07-10T19:49:25.051Z,99.90
2018-07-10T19:52:03.752Z,99.90
2018-07-10T19:54:39.128Z,99.90
2018-07-10T19:57:18.207Z,99.90
2018-07-10T19:59:53.554Z,99.90
2018-07-10T20:02:28.444Z,99.90
2018-07-10T20:07:44.281Z,99.90
2018-07-10T20:10:26.584Z,99.90
2018-07-10T20:13:07.632Z,99.90
2018-07-10T20:15:49.443Z,99.90
2018-07-10T20:18:35.425Z,99.90
2018-07-10T20:21:21.229Z,99.90
2018-07-10T20:24:12.375Z,99.90
2018-07-10T20:27:00.883Z,99.90
2018-07-10T20:29:46.445Z,99.90
2018-07-10T20:35:13.847Z,99.90
2018-07-10T20:37:49.731Z,99.90
2018-07-10T20:40:45.505Z,99.90
2018-07-10T20:43:21.680Z,99.90
2018-07-10T20:45:56.962Z,99.90
2018-07-10T20:49:04.125Z,99.90
2018-07-10T20:52:18.992Z,99.90
2018-07-10T20:54:57.508Z,99.90
2018-07-10T20:58:07.533Z,99.90
2018-07-10T21:00:51.009Z,99.90
2018-07-10T21:03:39.932Z,99.90
2018-07-10T21:07:31.576Z,99.90
2018-07-10T21:10:44.049Z,99.90
2018-07-10T21:13:37.875Z,99.90
2018-07-10T21:16:21.746Z,99.90
2018-07-10T21:19:04.721Z,99.90
2018-07-10T21:21:48.417Z,99.90
2018-07-10T21:24:29.392Z,99.90
2018-07-10T21:27:08.804Z,99.90
2018-07-10T21:32:55.320Z,99.90
2018-07-10T21:39:15.981Z,99.90
2018-07-10T21:42:05.783Z,99.90
2018-07-10T21:44:51.452Z,99.90
2018-07-10T21:47:38.797Z,99.90
2018-07-10T21:50:18.652Z,99.90
2018-07-10T21:52:53.615Z,99.90
2018-07-10T21:55:28.429Z,99.90
2018-07-10T21:58:03.298Z,99.90
2018-07-10T22:00:55.686Z,99.90
2018-07-10T22:03:30.554Z,99.90
2018-07-10T22:06:06.449Z,99.90
2018-07-10T22:08:41.352Z,99.90
2018-07-10T22:11:16.254Z,99.90
2018-07-10T22:13:51.158Z,99.90
2018-07-10T22:16:26.069Z,99.90
2018-07-10T22:19:01.807Z,99.90
2018-07-10T22:21:37.191Z,99.90
2018-07-10T22:24:12.058Z,99.90
2018-07-10T22:26:47.479Z,99.90
2018-07-10T22:29:27.443Z,99.90
2018-07-10T22:32:06.450Z,99.90
2018-07-10T22:34:44.424Z,99.90
2018-07-10T22:37:20.329Z,99.90
2018-07-10T22:39:56.213Z,99.90
2018-07-10T22:42:31.004Z,99.90
2018-07-10T22:45:06.926Z,99.90
2018-07-10T22:47:43.448Z,99.90
2018-07-10T22:50:21.760Z,99.90
2018-07-10T22:53:00.450Z,99.90
2018-07-10T22:55:36.357Z,99.90
2018-07-10T22:58:11.268Z,99.90
2018-07-10T23:00:46.092Z,99.90
2018-07-10T23:03:23.148Z,99.90
2018-07-10T23:05:58.045Z,99.90
2018-07-10T23:11:09.357Z,99.90
2018-07-10T23:13:47.541Z,99.90
2018-07-10T23:16:22.383Z,99.90
2018-07-10T23:18:57.276Z,99.90
2018-07-10T23:21:32.186Z,99.90
2018-07-10T23:24:09.672Z,99.90
2018-07-10T23:26:45.652Z,99.90
2018-07-10T23:29:28.547Z,99.90
2018-07-10T23:32:03.361Z,99.90
2018-07-10T23:34:38.263Z,99.90
2018-07-10T23:37:14.483Z,99.90
2018-07-10T23:39:51.440Z,99.90
2018-07-10T23:42:30.557Z,99.90
2018-07-10T23:45:14.904Z,99.90
2018-07-10T23:47:52.432Z,99.90
2018-07-10T23:50:29.325Z,99.90
2018-07-10T23:54:14.443Z,99.90
2018-07-10T23:56:49.275Z,99.90
2018-07-10T23:59:24.183Z,99.90
